Time;durP1;ratioP1;P1;durP2;ratioP2;P2;SDS_P1;SDS_P2;PMS_P1;PMS_P2;Temp;Humidity;BMP_temperature;BMP_pressure;BME280_temperature;BME280_humidity;BME280_pressure;Samples;Min_cycle;Max_cycle;Signal;HPM_P1;HPM_P2
2022/03/24 00:00:30;;;;;;;23.23;18.70;;;9.50;88.40;;;;;;5036181;28;20405;-72
2022/03/24 00:02:56;;;;;;;21.67;18.80;;;9.40;89.10;;;;;;5035633;28;20178;-71
2022/03/24 00:05:22;;;;;;;21.87;19.20;;;9.40;89.80;;;;;;5036078;28;20249;-72
2022/03/24 00:07:48;;;;;;;25.73;20.50;;;9.20;89.70;;;;;;5034508;28;20222;-71
2022/03/24 00:10:14;;;;;;;27.67;20.73;;;9.20;89.80;;;;;;5035545;28;20167;-71
2022/03/24 00:12:40;;;;;;;26.17;22.50;;;9.20;90.20;;;;;;5035431;28;20770;-71
2022/03/24 00:15:07;;;;;;;22.27;18.90;;;9.10;90.50;;;;;;5035917;28;20177;-71
2022/03/24 00:17:33;;;;;;;24.23;18.70;;;9.10;90.70;;;;;;5035748;28;20505;-71
2022/03/24 00:19:59;;;;;;;24.30;20.07;;;9.10;90.70;;;;;;5035799;28;20440;-71
2022/03/24 00:22:26;;;;;;;23.03;19.90;;;9.10;90.90;;;;;;5035057;28;20600;-71
2022/03/24 00:24:52;;;;;;;25.87;20.20;;;9.10;91.40;;;;;;5035669;28;20421;-71
2022/03/24 00:27:18;;;;;;;25.63;20.57;;;9.10;91.40;;;;;;5035439;28;20434;-71
2022/03/24 00:29:44;;;;;;;25.67;20.60;;;9.20;91.50;;;;;;5035497;28;20766;-72
2022/03/24 00:32:10;;;;;;;22.83;18.83;;;9.20;91.30;;;;;;5035433;28;20165;-70
2022/03/24 00:34:35;;;;;;;20.87;18.50;;;9.20;91.30;;;;;;5035564;28;20451;-71
2022/03/24 00:37:03;;;;;;;26.23;20.40;;;9.20;91.50;;;;;;5033372;28;20220;-70
2022/03/24 00:39:35;;;;;;;21.17;18.10;;;9.10;91.80;;;;;;5035272;28;20163;-71
2022/03/24 00:42:01;;;;;;;25.23;19.37;;;9.00;92.00;;;;;;5035620;28;20385;-71
2022/03/24 00:44:28;;;;;;;21.33;18.80;;;9.00;92.10;;;;;;5035209;28;20416;-71
2022/03/24 00:46:55;;;;;;;22.83;19.90;;;8.90;92.10;;;;;;5035479;28;20397;-71
2022/03/24 00:49:21;;;;;;;27.87;20.30;;;9.00;92.30;;;;;;5034860;28;20455;-71
2022/03/24 00:51:48;;;;;;;25.30;20.50;;;9.00;92.40;;;;;;5034486;28;20428;-71
2022/03/24 00:54:14;;;;;;;25.30;21.63;;;8.80;92.50;;;;;;5035020;28;20450;-71
2022/03/24 00:56:40;;;;;;;25.33;19.83;;;8.70;93.00;;;;;;5034781;28;20420;-71
2022/03/24 00:59:06;;;;;;;26.10;20.73;;;8.60;93.40;;;;;;5034739;28;20421;-71
2022/03/24 01:01:31;;;;;;;24.93;20.53;;;8.60;93.50;;;;;;5033840;28;20177;-71
2022/03/24 01:03:57;;;;;;;23.30;17.83;;;8.60;93.40;;;;;;5042639;28;20173;-72
2022/03/24 01:06:26;;;;;;;23.50;19.73;;;8.60;93.40;;;;;;5047870;28;20687;-71
2022/03/24 01:08:55;;;;;;;25.07;21.10;;;8.60;93.30;;;;;;5034225;28;20689;-71
2022/03/24 01:11:20;;;;;;;28.73;21.03;;;8.70;93.40;;;;;;5034641;28;20468;-71
2022/03/24 01:13:46;;;;;;;23.60;20.53;;;8.70;93.40;;;;;;5034919;28;20551;-72
2022/03/24 01:16:12;;;;;;;22.67;18.97;;;8.70;93.60;;;;;;5034609;28;20167;-71
2022/03/24 01:18:38;;;;;;;24.40;20.40;;;8.60;93.90;;;;;;5034237;28;20240;-71
2022/03/24 01:21:04;;;;;;;24.90;20.97;;;8.60;94.10;;;;;;5034222;28;20410;-71
2022/03/24 01:23:31;;;;;;;23.97;19.80;;;8.60;94.50;;;;;;5034096;28;20413;-71
2022/03/24 01:26:00;;;;;;;25.43;20.57;;;8.60;94.40;;;;;;5034649;28;20478;-71
2022/03/24 01:28:27;;;;;;;26.87;20.60;;;8.40;94.50;;;;;;5034058;28;20440;-71
2022/03/24 01:30:54;;;;;;;26.77;21.50;;;8.30;94.80;;;;;;5034645;28;20417;-71
2022/03/24 01:33:22;;;;;;;25.37;20.50;;;8.30;95.00;;;;;;5034274;28;20463;-70
2022/03/24 01:35:47;;;;;;;25.10;20.47;;;8.30;94.80;;;;;;5033974;28;20409;-71
2022/03/24 01:38:16;;;;;;;24.67;20.50;;;8.40;94.70;;;;;;5034418;28;20999;-72
2022/03/24 01:40:42;;;;;;;23.37;18.10;;;8.40;94.80;;;;;;5033848;28;20173;-71
2022/03/24 01:43:08;;;;;;;30.20;21.47;;;8.40;94.90;;;;;;5033981;28;20416;-69
2022/03/24 01:45:34;;;;;;;24.20;19.13;;;8.30;95.20;;;;;;5033931;28;20456;-70
2022/03/24 01:48:00;;;;;;;28.20;22.23;;;8.30;95.40;;;;;;5033213;28;20194;-72
2022/03/24 01:50:26;;;;;;;29.23;23.00;;;8.20;95.90;;;;;;5033725;28;20395;-71
2022/03/24 01:52:53;;;;;;;25.27;21.33;;;8.20;95.70;;;;;;5033061;28;20451;-71
2022/03/24 01:55:19;;;;;;;25.63;22.23;;;8.30;95.70;;;;;;5033817;28;20174;-72
2022/03/24 01:57:45;;;;;;;21.60;19.20;;;8.20;96.00;;;;;;5033402;28;20844;-71
2022/03/24 02:00:12;;;;;;;25.00;21.30;;;8.10;96.60;;;;;;5033463;28;20417;-70
2022/03/24 02:02:41;;;;;;;29.63;23.10;;;8.00;96.40;;;;;;5033700;28;20413;-71
2022/03/24 02:05:07;;;;;;;28.73;21.60;;;8.00;96.80;;;;;;5033214;28;20404;-71
2022/03/24 02:07:34;;;;;;;25.83;20.87;;;8.00;97.00;;;;;;5031973;28;20461;-72
2022/03/24 02:09:59;;;;;;;27.00;22.23;;;8.00;97.40;;;;;;5033632;28;20976;-72
2022/03/24 02:12:26;;;;;;;30.67;22.03;;;7.80;97.40;;;;;;5033519;28;20490;-73
2022/03/24 02:14:52;;;;;;;26.00;20.93;;;7.70;97.40;;;;;;5032485;28;20250;-73
2022/03/24 02:17:19;;;;;;;23.60;20.50;;;7.60;97.50;;;;;;5033112;28;21009;-73
2022/03/24 02:19:45;;;;;;;26.37;22.10;;;7.60;97.60;;;;;;5033293;28;20817;-73
2022/03/24 02:22:17;;;;;;;26.30;22.03;;;7.70;98.00;;;;;;5032766;28;20408;-73
2022/03/24 02:24:43;;;;;;;24.70;21.20;;;7.70;97.80;;;;;;5033325;28;20408;-73
2022/03/24 02:27:10;;;;;;;26.10;20.40;;;7.70;97.90;;;;;;5033202;28;20430;-73
2022/03/24 02:29:36;;;;;;;25.27;20.30;;;7.60;97.80;;;;;;5033136;28;20168;-73
2022/03/24 02:32:07;;;;;;;22.13;18.00;;;7.60;97.80;;;;;;5032966;28;20989;-72
2022/03/24 02:34:37;;;;;;;27.40;21.47;;;7.50;98.10;;;;;;5032834;28;20216;-72
2022/03/24 02:37:14;;;;;;;27.90;20.00;;;7.50;98.20;;;;;;5030884;28;20457;-72
2022/03/24 02:39:48;;;;;;;30.90;22.97;;;7.50;98.40;;;;;;5032904;28;20393;-73
2022/03/24 02:42:20;;;;;;;28.40;21.20;;;7.50;98.80;;;;;;5033352;28;20382;-72
2022/03/24 02:44:48;;;;;;;22.80;20.00;;;7.50;98.70;;;;;;5032986;28;20391;-73
2022/03/24 02:47:16;;;;;;;27.97;21.40;;;7.50;99.00;;;;;;5031863;28;20846;-72
2022/03/24 02:49:43;;;;;;;28.83;21.60;;;7.50;98.90;;;;;;5033014;28;20398;-73
2022/03/24 02:52:09;;;;;;;25.90;22.47;;;7.40;98.80;;;;;;5033013;28;20410;-72
2022/03/24 02:54:35;;;;;;;25.00;21.07;;;7.30;99.30;;;;;;5032128;28;20450;-72
2022/03/24 02:57:02;;;;;;;25.87;20.17;;;7.40;99.00;;;;;;5031698;28;20402;-72
2022/03/24 02:59:28;;;;;;;24.63;21.00;;;7.40;99.10;;;;;;5032807;28;20400;-73
2022/03/24 03:02:01;;;;;;;24.30;20.20;;;7.40;98.80;;;;;;5032632;28;20411;-72
2022/03/24 03:04:28;;;;;;;24.47;21.57;;;7.30;99.00;;;;;;5032579;28;20437;-72
2022/03/24 03:06:54;;;;;;;24.03;19.00;;;7.20;99.10;;;;;;5030828;28;20419;-72
2022/03/24 03:09:21;;;;;;;21.13;18.67;;;7.20;99.10;;;;;;5031286;28;20414;-72
2022/03/24 03:11:47;;;;;;;26.47;21.37;;;7.30;99.10;;;;;;5032487;28;20417;-72
2022/03/24 03:14:15;;;;;;;21.80;18.63;;;7.30;98.90;;;;;;5034879;28;20449;-72
2022/03/24 03:16:42;;;;;;;25.13;19.53;;;7.30;99.10;;;;;;5031246;28;20418;-72
2022/03/24 03:19:08;;;;;;;25.77;20.63;;;7.20;99.20;;;;;;5032620;28;20766;-71
2022/03/24 03:21:36;;;;;;;23.40;19.80;;;7.00;99.30;;;;;;5032136;28;20420;-73
2022/03/24 03:24:02;;;;;;;24.30;21.50;;;7.00;99.50;;;;;;5031100;28;20429;-73
2022/03/24 03:26:28;;;;;;;22.90;19.70;;;7.10;99.50;;;;;;5034974;28;20413;-73
2022/03/24 03:28:54;;;;;;;24.80;20.37;;;7.10;99.10;;;;;;5036374;28;20426;-73
2022/03/24 03:31:20;;;;;;;23.83;18.57;;;7.10;99.20;;;;;;5036329;28;20705;-73
2022/03/24 03:33:46;;;;;;;25.77;21.90;;;7.10;99.60;;;;;;5034895;28;20289;-73
2022/03/24 03:36:12;;;;;;;23.73;19.17;;;7.10;99.30;;;;;;5036323;28;20483;-73
2022/03/24 03:38:38;;;;;;;21.93;19.63;;;7.10;99.30;;;;;;5036174;28;20425;-72
2022/03/24 03:41:04;;;;;;;21.73;18.47;;;7.00;99.40;;;;;;5036159;28;20427;-72
2022/03/24 03:43:30;;;;;;;24.33;20.97;;;7.10;99.50;;;;;;5036196;28;20163;-72
2022/03/24 03:45:56;;;;;;;25.10;21.50;;;7.10;99.70;;;;;;5036159;28;20399;-72
2022/03/24 03:48:21;;;;;;;22.60;19.10;;;7.00;99.50;;;;;;5036012;28;20187;-72
2022/03/24 03:50:48;;;;;;;26.57;20.17;;;6.90;99.80;;;;;;5036355;28;20412;-72
2022/03/24 03:53:14;;;;;;;23.37;19.20;;;6.80;99.90;;;;;;5036232;28;20446;-73
2022/03/24 03:55:41;;;;;;;25.50;18.90;;;6.80;99.90;;;;;;5038667;28;20404;-73
2022/03/24 03:58:07;;;;;;;26.20;20.10;;;6.80;99.90;;;;;;5036530;28;20444;-73
2022/03/24 04:03:39;;;;;;;23.03;19.97;;;6.80;99.90;;;;;;5035738;28;20437;-72
2022/03/24 04:06:08;;;;;;;21.93;19.53;;;6.90;99.90;;;;;;5035488;28;20414;-72
2022/03/24 04:08:35;;;;;;;26.67;20.10;;;6.90;99.90;;;;;;5046407;23;20865;-67
2022/03/24 04:11:01;;;;;;;24.80;20.47;;;6.80;99.90;;;;;;5035912;28;21156;-69
2022/03/24 04:13:26;;;;;;;23.27;19.00;;;6.80;99.90;;;;;;5035886;28;20499;-68
2022/03/24 04:15:54;;;;;;;23.50;20.33;;;6.80;99.90;;;;;;5036468;28;20163;-68
2022/03/24 04:18:20;;;;;;;24.90;19.83;;;6.90;99.90;;;;;;5035937;28;20452;-67
2022/03/24 04:20:46;;;;;;;21.03;17.67;;;6.80;99.90;;;;;;5035740;28;20409;-68
2022/03/24 04:23:11;;;;;;;21.60;19.10;;;6.80;99.90;;;;;;5035809;28;20402;-67
2022/03/24 04:25:37;;;;;;;21.67;17.47;;;6.80;99.90;;;;;;5035867;28;20171;-67
2022/03/24 04:28:04;;;;;;;25.60;19.50;;;6.80;99.90;;;;;;5036068;28;20278;-68
2022/03/24 04:30:30;;;;;;;24.43;18.70;;;6.70;99.90;;;;;;5035780;28;20410;-67
2022/03/24 04:32:56;;;;;;;23.63;19.77;;;6.50;99.90;;;;;;5035858;28;20438;-67
2022/03/24 04:35:22;;;;;;;23.60;19.53;;;6.50;99.90;;;;;;5035604;28;20432;-67
2022/03/24 04:37:49;;;;;;;24.97;20.00;;;6.40;99.90;;;;;;5034517;28;20184;-68
2022/03/24 04:40:16;;;;;;;21.80;18.10;;;6.50;99.90;;;;;;5035691;28;20417;-67
2022/03/24 04:42:43;;;;;;;22.80;18.97;;;6.50;99.90;;;;;;5035790;28;20410;-67
2022/03/24 04:45:09;;;;;;;22.27;18.40;;;6.50;99.90;;;;;;5035482;28;20410;-68
2022/03/24 04:47:35;;;;;;;22.00;18.27;;;6.50;99.90;;;;;;5035323;28;20417;-68
2022/03/24 04:50:01;;;;;;;22.03;18.60;;;6.40;99.90;;;;;;5035197;28;20429;-67
2022/03/24 04:52:27;;;;;;;22.60;18.40;;;6.40;99.90;;;;;;5033902;28;20418;-67
2022/03/24 04:54:52;;;;;;;26.57;20.20;;;6.40;99.90;;;;;;5035400;28;20789;-68
2022/03/24 04:57:18;;;;;;;27.03;18.77;;;6.40;99.90;;;;;;5034118;28;20636;-68
2022/03/24 04:59:44;;;;;;;23.80;20.00;;;6.30;99.90;;;;;;5035587;28;20171;-68
2022/03/24 05:02:15;;;;;;;23.80;19.47;;;6.20;99.90;;;;;;5035322;28;20187;-68
2022/03/24 05:04:41;;;;;;;26.57;18.87;;;6.30;99.90;;;;;;5035249;28;20170;-69
2022/03/24 05:07:09;;;;;;;27.03;19.67;;;6.30;99.90;;;;;;5033862;28;20878;-68
2022/03/24 05:09:34;;;;;;;25.80;19.87;;;6.30;99.90;;;;;;5034780;28;20466;-68
2022/03/24 05:12:00;;;;;;;24.70;19.77;;;6.30;99.90;;;;;;5034416;28;20445;-69
2022/03/24 05:14:26;;;;;;;27.63;20.90;;;6.30;99.90;;;;;;5034978;28;20664;-69
2022/03/24 05:16:51;;;;;;;27.37;20.83;;;6.30;99.90;;;;;;5035309;28;20174;-68
2022/03/24 05:19:17;;;;;;;23.97;19.87;;;6.20;99.90;;;;;;5035578;28;20652;-69
2022/03/24 05:21:42;;;;;;;23.63;19.57;;;6.10;99.90;;;;;;5033900;28;20203;-69
2022/03/24 05:24:08;;;;;;;21.10;18.73;;;6.20;99.90;;;;;;5034988;28;20225;-69
2022/03/24 05:26:34;;;;;;;24.20;20.00;;;6.20;99.90;;;;;;5035162;28;20651;-69
2022/03/24 05:28:59;;;;;;;24.03;19.33;;;6.20;99.90;;;;;;5034785;28;20427;-69
2022/03/24 05:31:26;;;;;;;27.27;20.97;;;6.20;99.90;;;;;;5033388;28;20168;-68
2022/03/24 05:33:51;;;;;;;25.90;20.30;;;6.10;99.90;;;;;;5034884;28;20191;-69
2022/03/24 05:36:17;;;;;;;26.10;20.33;;;6.00;99.90;;;;;;5034722;28;20768;-68
2022/03/24 05:38:43;;;;;;;26.50;21.20;;;6.00;99.90;;;;;;5032716;28;20203;-68
2022/03/24 05:41:12;;;;;;;27.57;19.33;;;6.00;99.90;;;;;;5034357;28;20175;-69
2022/03/24 05:43:38;;;;;;;29.13;18.97;;;6.10;99.90;;;;;;5034350;28;20258;-68
2022/03/24 05:46:04;;;;;;;25.93;19.90;;;6.20;99.90;;;;;;5034148;28;20410;-68
2022/03/24 05:48:32;;;;;;;25.30;20.57;;;6.30;99.90;;;;;;5034454;28;20480;-68
2022/03/24 05:50:59;;;;;;;27.20;21.90;;;6.30;99.90;;;;;;5034597;28;20179;-69
2022/03/24 05:53:25;;;;;;;25.67;21.60;;;6.30;99.90;;;;;;5033946;28;20477;-67
2022/03/24 05:55:50;;;;;;;26.53;21.97;;;6.30;99.90;;;;;;5034361;28;20447;-68
2022/03/24 05:58:17;;;;;;;28.50;21.57;;;6.20;99.90;;;;;;5034107;28;20557;-68
2022/03/24 06:00:42;;;;;;;26.10;20.87;;;6.30;99.90;;;;;;5034055;28;20167;-67
2022/03/24 06:03:08;;;;;;;23.10;18.60;;;6.30;99.90;;;;;;5034050;28;20429;-68
2022/03/24 06:05:35;;;;;;;26.70;22.20;;;6.30;99.90;;;;;;5033753;28;20619;-68
2022/03/24 06:08:01;;;;;;;24.53;21.70;;;6.30;99.90;;;;;;5032489;28;20469;-68
2022/03/24 06:10:27;;;;;;;28.70;24.00;;;6.30;99.90;;;;;;5033833;28;20417;-68
2022/03/24 06:12:53;;;;;;;25.97;20.80;;;6.30;99.90;;;;;;5033534;28;20171;-67
2022/03/24 06:15:19;;;;;;;30.97;23.43;;;6.50;99.90;;;;;;5033647;28;20414;-68
2022/03/24 06:17:45;;;;;;;28.77;22.07;;;6.50;99.90;;;;;;5033495;28;20183;-68
2022/03/24 06:20:12;;;;;;;27.57;22.47;;;6.50;99.90;;;;;;5033754;28;20459;-70
2022/03/24 06:22:52;;;;;;;26.53;20.73;;;6.50;99.90;;;;;;5033384;28;20485;-68
2022/03/24 06:25:19;;;;;;;26.30;22.30;;;6.60;99.90;;;;;;5033549;28;20409;-67
2022/03/24 06:27:46;;;;;;;26.83;21.80;;;6.60;99.90;;;;;;5033246;28;20445;-70
2022/03/24 06:30:13;;;;;;;30.27;23.97;;;6.70;99.90;;;;;;5033625;28;20415;-68
2022/03/24 06:32:39;;;;;;;29.93;22.83;;;6.80;99.90;;;;;;5033116;28;20405;-68
2022/03/24 06:35:05;;;;;;;28.30;22.07;;;6.90;99.90;;;;;;5033245;28;20406;-69
2022/03/24 06:37:39;;;;;;;28.47;23.67;;;6.90;99.90;;;;;;5032955;28;20889;-68
2022/03/24 06:40:12;;;;;;;29.93;24.07;;;7.00;99.90;;;;;;5033483;28;20450;-68
2022/03/24 06:42:38;;;;;;;26.97;24.07;;;7.10;99.90;;;;;;5033787;28;20388;-67
2022/03/24 06:45:05;;;;;;;30.47;23.20;;;7.20;99.90;;;;;;5033580;28;20418;-68
2022/03/24 06:47:31;;;;;;;28.13;21.23;;;7.30;99.90;;;;;;5031002;28;20439;-67
2022/03/24 06:49:57;;;;;;;26.93;21.67;;;7.50;99.90;;;;;;5033353;28;20501;-68
2022/03/24 06:52:23;;;;;;;32.43;23.20;;;7.60;99.90;;;;;;5032911;28;20210;-67
2022/03/24 06:54:48;;;;;;;27.87;23.77;;;7.70;99.90;;;;;;5033508;28;20874;-69
2022/03/24 06:57:14;;;;;;;32.60;21.97;;;7.80;99.90;;;;;;5032930;28;20626;-68
2022/03/24 06:59:41;;;;;;;27.20;22.37;;;7.90;99.70;;;;;;5033273;28;20263;-68
2022/03/24 07:02:07;;;;;;;25.80;21.23;;;8.10;99.50;;;;;;5032892;28;20165;-68
2022/03/24 07:04:33;;;;;;;25.60;21.00;;;8.20;99.40;;;;;;5033362;28;20417;-68
2022/03/24 07:06:59;;;;;;;32.90;23.33;;;8.30;99.50;;;;;;5033092;28;20459;-68
2022/03/24 07:09:24;;;;;;;28.90;23.73;;;8.40;99.40;;;;;;5032335;28;20207;-68
2022/03/24 07:11:50;;;;;;;33.70;24.93;;;8.50;99.30;;;;;;5032964;28;20778;-68
2022/03/24 07:14:16;;;;;;;25.03;21.20;;;8.60;99.10;;;;;;5032264;28;20560;-68
2022/03/24 07:16:41;;;;;;;28.27;22.90;;;8.70;98.30;;;;;;5032880;28;20166;-68
2022/03/24 07:19:09;;;;;;;29.07;21.90;;;8.90;98.30;;;;;;5033498;28;20189;-68
2022/03/24 07:21:35;;;;;;;27.47;21.83;;;9.00;98.10;;;;;;5033221;28;20167;-68
2022/03/24 07:24:00;;;;;;;29.23;22.47;;;9.20;98.10;;;;;;5032575;28;20475;-69
2022/03/24 07:26:26;;;;;;;27.97;23.50;;;9.30;97.90;;;;;;5033173;28;20174;-69
2022/03/24 07:28:52;;;;;;;28.27;22.33;;;9.40;97.00;;;;;;5033041;28;20190;-67
2022/03/24 07:31:19;;;;;;;29.77;22.70;;;9.30;96.40;;;;;;5033605;28;20182;-68
2022/03/24 07:33:47;;;;;;;26.73;21.30;;;9.50;96.40;;;;;;5033336;28;20269;-68
2022/03/24 07:36:14;;;;;;;28.70;21.40;;;9.70;96.50;;;;;;5033013;28;20414;-68
2022/03/24 07:38:40;;;;;;;32.10;23.57;;;9.80;96.50;;;;;;5032408;28;20427;-68
2022/03/24 07:41:06;;;;;;;37.20;24.20;;;10.00;95.60;;;;;;5032938;28;20424;-69
2022/03/24 07:43:32;;;;;;;26.10;22.33;;;10.10;95.40;;;;;;5032967;28;20410;-69
2022/03/24 07:45:57;;;;;;;26.97;23.20;;;10.30;94.70;;;;;;5032652;28;20548;-68
2022/03/24 07:48:26;;;;;;;37.70;24.60;;;10.30;94.50;;;;;;5032384;28;20430;-69
2022/03/24 07:50:54;;;;;;;30.20;23.90;;;10.20;93.50;;;;;;5032599;28;20191;-68
2022/03/24 07:53:39;;;;;;;29.50;23.50;;;9.90;94.30;;;;;;5032410;28;20449;-70
2022/03/24 07:56:05;;;;;;;29.60;24.00;;;9.80;94.30;;;;;;5033227;28;20401;-70
2022/03/24 07:58:31;;;;;;;29.93;24.17;;;9.80;94.30;;;;;;5033374;28;20429;-69
2022/03/24 08:00:57;;;;;;;28.40;23.20;;;9.70;94.50;;;;;;5033367;28;20466;-72
2022/03/24 08:03:23;;;;;;;28.73;24.00;;;9.60;94.20;;;;;;5033087;28;20542;-71
2022/03/24 08:05:50;;;;;;;32.60;26.07;;;9.50;94.30;;;;;;5033082;28;20464;-70
2022/03/24 08:08:16;;;;;;;32.90;24.67;;;9.50;94.60;;;;;;5032364;28;20963;-71
2022/03/24 08:10:44;;;;;;;32.17;24.97;;;9.50;94.70;;;;;;5033739;28;20444;-70
2022/03/24 08:13:13;;;;;;;29.37;23.30;;;9.70;94.70;;;;;;5035377;28;20451;-70
2022/03/24 08:15:39;;;;;;;31.53;23.50;;;9.90;94.40;;;;;;5036931;28;20435;-70
2022/03/24 08:18:05;;;;;;;27.37;24.23;;;10.20;93.30;;;;;;5037143;28;20418;-70
2022/03/24 08:20:32;;;;;;;26.23;22.73;;;10.20;93.10;;;;;;5037434;28;20816;-70
2022/03/24 08:22:58;;;;;;;28.07;22.37;;;10.50;93.10;;;;;;5037142;28;20921;-70
2022/03/24 08:25:24;;;;;;;32.97;26.07;;;10.70;93.10;;;;;;5035912;28;20401;-70
2022/03/24 08:27:49;;;;;;;28.10;23.73;;;10.70;92.90;;;;;;5036391;28;20186;-70
2022/03/24 08:30:15;;;;;;;31.10;23.17;;;10.70;93.00;;;;;;5036253;28;20170;-70
2022/03/24 08:32:41;;;;;;;28.80;23.40;;;10.80;92.90;;;;;;5036565;28;20655;-72
2022/03/24 08:35:08;;;;;;;26.33;23.40;;;10.70;93.10;;;;;;5036636;28;20650;-69
2022/03/24 08:37:33;;;;;;;29.90;23.27;;;10.60;92.90;;;;;;5036729;28;20838;-69
2022/03/24 08:39:59;;;;;;;32.47;24.50;;;10.60;93.00;;;;;;5034332;28;20422;-69
2022/03/24 08:42:25;;;;;;;26.93;23.37;;;10.70;93.00;;;;;;5036322;28;20172;-70
2022/03/24 08:44:50;;;;;;;33.13;23.00;;;10.80;92.70;;;;;;5035631;28;20175;-70
2022/03/24 08:47:16;;;;;;;29.10;23.43;;;11.00;92.60;;;;;;5035620;28;20242;-67
2022/03/24 08:49:42;;;;;;;29.23;22.93;;;11.10;92.30;;;;;;5035826;28;20666;-68
2022/03/24 08:52:09;;;;;;;31.90;23.30;;;11.20;92.20;;;;;;5034783;28;20172;-69
2022/03/24 08:54:34;;;;;;;30.07;23.97;;;11.40;92.10;;;;;;5035205;28;20552;-70
2022/03/24 08:57:00;;;;;;;29.83;24.20;;;11.50;91.60;;;;;;5035123;28;20412;-67
2022/03/24 08:59:26;;;;;;;27.83;24.17;;;11.70;91.30;;;;;;5034517;28;20222;-67
2022/03/24 09:01:51;;;;;;;26.57;22.00;;;11.90;91.30;;;;;;5035073;28;20556;-70
2022/03/24 09:04:18;;;;;;;31.90;24.60;;;11.90;90.90;;;;;;5034957;28;20167;-68
2022/03/24 09:06:46;;;;;;;25.33;22.23;;;11.90;90.60;;;;;;5034946;28;20180;-70
2022/03/24 09:09:12;;;;;;;31.97;25.10;;;12.10;90.40;;;;;;5033861;28;21040;-71
2022/03/24 09:11:38;;;;;;;30.47;24.27;;;12.20;90.20;;;;;;5034519;28;20420;-69
2022/03/24 09:14:03;;;;;;;27.77;23.50;;;12.20;89.50;;;;;;5035726;28;20511;-71
2022/03/24 09:16:29;;;;;;;28.07;24.00;;;12.30;89.10;;;;;;5036208;28;20636;-73
2022/03/24 09:18:54;;;;;;;32.10;24.23;;;12.50;88.00;;;;;;5036731;28;20242;-73
2022/03/24 09:21:20;;;;;;;28.63;24.43;;;12.60;86.80;;;;;;5035622;28;20177;-74
2022/03/24 09:23:51;;;;;;;29.33;23.70;;;12.60;86.40;;;;;;5034650;28;20636;-73
2022/03/24 09:26:19;;;;;;;27.43;23.30;;;12.70;86.00;;;;;;5036024;28;20152;-72
2022/03/24 09:28:46;;;;;;;32.93;25.50;;;12.80;85.20;;;;;;5036916;28;20483;-73
2022/03/24 09:31:12;;;;;;;33.83;26.37;;;13.00;84.20;;;;;;5038646;28;20821;-72
2022/03/24 09:33:38;;;;;;;30.30;23.63;;;13.30;83.30;;;;;;5036943;28;20542;-73
2022/03/24 09:36:04;;;;;;;28.47;25.23;;;13.40;82.20;;;;;;5035864;28;20223;-73
2022/03/24 09:38:30;;;;;;;35.43;24.13;;;13.50;80.60;;;;;;5034758;28;20438;-71
2022/03/24 09:40:56;;;;;;;30.37;24.83;;;13.70;80.00;;;;;;5035306;28;20415;-70
2022/03/24 09:43:22;;;;;;;29.70;23.93;;;13.80;79.60;;;;;;5034678;28;20199;-68
2022/03/24 09:45:49;;;;;;;34.50;26.20;;;13.80;78.30;;;;;;5034582;28;20463;-68
2022/03/24 09:48:15;;;;;;;29.10;23.50;;;13.80;78.00;;;;;;5034188;28;20273;-68
2022/03/24 09:50:44;;;;;;;32.07;24.57;;;13.90;78.30;;;;;;5034652;28;20437;-68
2022/03/24 09:53:10;;;;;;;29.07;23.67;;;14.10;78.50;;;;;;5033820;28;20654;-69
2022/03/24 09:55:37;;;;;;;29.73;24.40;;;14.30;75.80;;;;;;5034361;28;20405;-69
2022/03/24 09:58:04;;;;;;;32.33;23.40;;;14.30;75.00;;;;;;5034164;28;20479;-68
2022/03/24 10:00:30;;;;;;;29.43;24.10;;;14.40;74.50;;;;;;5034331;28;20906;-69
2022/03/24 10:03:15;;;;;;;27.23;22.30;;;14.70;74.90;;;;;;5034302;28;20422;-68
2022/03/24 10:05:55;;;;;;;34.50;24.60;;;15.00;75.10;;;;;;5034374;28;20387;-69
2022/03/24 10:08:21;;;;;;;28.83;24.70;;;15.20;70.90;;;;;;5057646;23;20482;-68
2022/03/24 10:10:46;;;;;;;31.17;23.17;;;15.30;69.90;;;;;;5046344;28;20261;-68
2022/03/24 10:13:12;;;;;;;32.83;23.73;;;15.40;65.50;;;;;;5034136;28;20453;-69
2022/03/24 10:15:38;;;;;;;25.33;21.50;;;15.40;65.10;;;;;;5034537;28;20628;-68
2022/03/24 10:18:04;;;;;;;29.73;23.03;;;15.50;64.00;;;;;;5031370;28;20187;-70
2022/03/24 10:20:32;;;;;;;31.57;23.70;;;15.70;63.40;;;;;;5014335;28;20778;-71
2022/03/24 10:23:04;;;;;;;175.60;37.83;;;15.80;60.90;;;;;;5013703;28;20403;-70
2022/03/24 10:25:33;;;;;;;28.90;22.73;;;15.90;60.00;;;;;;5014778;28;20396;-70
2022/03/24 10:28:05;;;;;;;24.73;22.00;;;16.00;59.20;;;;;;5014222;28;20450;-71
2022/03/24 10:30:50;;;;;;;31.42;24.15;;;;;;;;;;5013423;28;20415;-69
2022/03/24 10:33:27;;;;;;;27.27;23.75;;;;;;;;;;5012960;28;20496;-71
2022/03/24 10:36:17;;;;;;;25.92;22.95;;;17.00;56.60;;;;;;5012048;28;20496;-69
2022/03/24 10:38:46;;;;;;;26.23;23.42;;;17.30;57.50;;;;;;5023232;28;20401;-67
2022/03/24 10:41:13;;;;;;;26.70;23.57;;;17.50;56.40;;;;;;5033267;28;20209;-68
2022/03/24 10:43:39;;;;;;;27.27;23.07;;;16.70;54.40;;;;;;5032920;28;20548;-68
2022/03/24 10:46:18;;;;;;;37.53;23.97;;;16.50;55.10;;;;;;5033389;28;20869;-68
2022/03/24 10:48:47;;;;;;;25.13;22.43;;;16.60;56.10;;;;;;5033132;28;20276;-69
2022/03/24 10:51:24;;;;;;;24.93;21.40;;;16.70;53.60;;;;;;5033535;28;20402;-69
2022/03/24 10:53:51;;;;;;;24.37;21.77;;;17.10;52.20;;;;;;5031656;28;20449;-69
2022/03/24 10:56:53;;;;;;;26.03;21.20;;;17.90;50.50;;;;;;5033551;28;20513;-69
2022/03/24 10:59:20;;;;;;;22.30;19.90;;;19.10;48.40;;;;;;5014595;28;20437;-69
2022/03/24 11:01:47;;;;;;;22.23;19.87;;;20.10;47.70;;;;;;5033603;28;20406;-71
2022/03/24 11:04:14;;;;;;;26.80;21.23;;;20.80;45.20;;;;;;5034666;28;20416;-69
2022/03/24 11:06:50;;;;;;;24.00;21.57;;;20.30;44.60;;;;;;5036966;28;20441;-69
2022/03/24 11:09:27;;;;;;;24.13;21.00;;;20.30;44.50;;;;;;5035073;28;20461;-68
2022/03/24 11:12:38;;;;;;;27.77;23.10;;;20.40;45.20;;;;;;5036525;28;20417;-69
2022/03/24 11:15:07;;;;;;;26.23;21.50;;;19.90;46.50;;;;;;5017721;28;20443;-68
2022/03/24 11:17:37;;;;;;;24.77;22.13;;;20.20;45.50;;;;;;5016621;28;20418;-68
2022/03/24 11:20:06;;;;;;;23.87;21.00;;;21.70;43.70;;;;;;5016708;28;20403;-68
2022/03/24 11:22:47;;;;;;;25.00;22.40;;;22.60;42.60;;;;;;5023123;28;20454;-69
2022/03/24 11:25:13;;;;;;;24.40;22.00;;;23.60;41.10;;;;;;5014328;28;20415;-68
2022/03/24 11:27:39;;;;;;;23.30;20.97;;;23.90;39.40;;;;;;5013205;28;20498;-69
2022/03/24 11:30:07;;;;;;;24.27;21.87;;;24.10;39.50;;;;;;5011522;28;20422;-68
2022/03/24 11:32:36;;;;;;;23.30;20.03;;;24.80;37.20;;;;;;5013085;28;20451;-69
2022/03/24 11:35:04;;;;;;;23.53;21.03;;;24.10;38.00;;;;;;5013410;28;20928;-68
2022/03/24 11:37:30;;;;;;;24.83;18.73;;;24.90;38.70;;;;;;5012476;28;20409;-69
2022/03/24 11:40:10;;;;;;;20.17;18.17;;;26.70;35.50;;;;;;5012881;28;20422;-68
2022/03/24 11:42:44;;;;;;;21.67;19.50;;;24.00;35.50;;;;;;5013332;28;20395;-67
2022/03/24 11:45:27;;;;;;;18.80;17.00;;;24.00;35.00;;;;;;5012848;28;20462;-68
2022/03/24 11:48:05;;;;;;;17.63;14.83;;;23.90;34.30;;;;;;5015835;28;20824;-68
2022/03/24 11:50:48;;;;;;;16.80;15.10;;;25.50;31.70;;;;;;5016640;28;20514;-68
2022/03/24 11:53:38;;;;;;;19.20;15.97;;;25.80;30.60;;;;;;5016526;28;20457;-69
2022/03/24 11:56:04;;;;;;;17.57;15.77;;;26.80;31.00;;;;;;5008786;28;20428;-68
2022/03/24 11:58:45;;;;;;;18.27;16.43;;;27.60;30.00;;;;;;5016469;28;20423;-69
2022/03/24 12:01:20;;;;;;;18.10;15.97;;;27.30;30.40;;;;;;5016409;28;20685;-69
2022/03/24 12:03:54;;;;;;;18.27;16.40;;;26.60;29.70;;;;;;5016364;28;20411;-69
2022/03/24 12:06:48;;;;;;;21.10;16.27;;;27.10;29.70;;;;;;5016239;28;20402;-70
2022/03/24 12:09:28;;;;;;;16.53;14.93;;;28.10;29.20;;;;;;5029955;28;20472;-69
2022/03/24 12:12:03;;;;;;;27.07;17.67;;;27.60;28.90;;;;;;5035972;28;20404;-72
2022/03/24 12:14:32;;;;;;;19.10;17.23;;;27.60;29.00;;;;;;5036190;28;20440;-72
2022/03/24 12:17:03;;;;;;;19.63;17.77;;;27.50;28.80;;;;;;5035990;28;20413;-72
2022/03/24 12:19:44;;;;;;;18.80;17.10;;;28.60;29.30;;;;;;5035738;28;20450;-71
2022/03/24 12:22:25;;;;;;;17.00;15.40;;;26.60;28.70;;;;;;5035527;28;20454;-71
2022/03/24 12:25:00;;;;;;;17.10;15.40;;;25.20;30.20;;;;;;5035072;28;20496;-69
2022/03/24 12:27:33;;;;;;;18.63;16.83;;;26.10;29.60;;;;;;5035684;28;20402;-68
2022/03/24 12:30:09;;;;;;;18.40;16.77;;;26.40;30.00;;;;;;5034138;28;20410;-69
2022/03/24 12:32:35;;;;;;;21.30;17.60;;;28.00;28.90;;;;;;5035699;28;20831;-69
2022/03/24 12:35:01;;;;;;;18.10;16.43;;;25.30;29.90;;;;;;5035491;28;20449;-69
2022/03/24 12:37:27;;;;;;;17.90;16.20;;;25.00;30.50;;;;;;5035952;28;20251;-71
2022/03/24 12:40:22;;;;;;;16.57;14.87;;;26.20;30.00;;;;;;5034890;28;20441;-72